sensor_id;sensor_type;location;lat;lon;timestamp;pressure;altitude;pressure_sealevel;temperature;humidity
60427;BME280;46274;47.168;27.604;2023-05-09T00:02:48;100975.56;;;7.80;81.43
60427;BME280;46274;47.168;27.604;2023-05-09T00:08:50;100983.50;;;7.81;81.61
60427;BME280;46274;47.168;27.604;2023-05-09T00:14:53;100967.47;;;7.80;81.73
60427;BME280;46274;47.168;27.604;2023-05-09T00:20:57;100971.03;;;7.80;81.91
60427;BME280;46274;47.168;27.604;2023-05-09T00:27:01;100918.94;;;7.49;81.37
60427;BME280;46274;47.168;27.604;2023-05-09T00:33:04;100972.03;;;7.89;81.32
60427;BME280;46274;47.168;27.604;2023-05-09T00:39:07;100927.16;;;7.48;81.68
60427;BME280;46274;47.168;27.604;2023-05-09T00:45:10;100867.06;;;7.26;81.26
60427;BME280;46274;47.168;27.604;2023-05-09T00:51:13;100969.44;;;7.78;81.33
60427;BME280;46274;47.168;27.604;2023-05-09T00:57:16;100973.56;;;7.72;81.49
60427;BME280;46274;47.168;27.604;2023-05-09T01:03:21;100972.09;;;7.68;81.81
60427;BME280;46274;47.168;27.604;2023-05-09T01:09:52;100974.06;;;7.66;81.59
60427;BME280;46274;47.168;27.604;2023-05-09T01:16:02;100826.47;;;6.87;81.72
60427;BME280;46274;47.168;27.604;2023-05-09T01:22:08;100964.72;;;7.70;81.80
60427;BME280;46274;47.168;27.604;2023-05-09T01:34:54;100941.03;;;7.43;82.05
60427;BME280;46274;47.168;27.604;2023-05-09T01:40:59;100963.78;;;7.50;81.77
60427;BME280;46274;47.168;27.604;2023-05-09T01:47:02;100910.47;;;7.23;81.58
60427;BME280;46274;47.168;27.604;2023-05-09T01:53:10;100966.09;;;7.55;81.55
60427;BME280;46274;47.168;27.604;2023-05-09T01:59:16;100969.50;;;7.57;81.22
60427;BME280;46274;47.168;27.604;2023-05-09T02:05:20;100827.41;;;6.76;81.31
60427;BME280;46274;47.168;27.604;2023-05-09T02:11:27;100953.28;;;7.47;81.06
60427;BME280;46274;47.168;27.604;2023-05-09T02:17:29;100975.75;;;7.57;80.62
60427;BME280;46274;47.168;27.604;2023-05-09T02:23:36;100964.25;;;7.55;80.54
60427;BME280;46274;47.168;27.604;2023-05-09T02:29:48;100841.72;;;6.77;80.31
60427;BME280;46274;47.168;27.604;2023-05-09T02:35:51;100965.81;;;7.58;80.04
60427;BME280;46274;47.168;27.604;2023-05-09T02:41:55;100959.00;;;7.54;80.11
60427;BME280;46274;47.168;27.604;2023-05-09T02:47:57;100967.94;;;7.54;80.08
60427;BME280;46274;47.168;27.604;2023-05-09T02:53:59;100962.53;;;7.54;80.02
60427;BME280;46274;47.168;27.604;2023-05-09T03:00:05;100965.38;;;7.53;80.02
60427;BME280;46274;47.168;27.604;2023-05-09T03:06:10;100943.72;;;7.33;80.23
60427;BME280;46274;47.168;27.604;2023-05-09T03:12:13;100881.06;;;6.89;80.22
60427;BME280;46274;47.168;27.604;2023-05-09T03:18:16;100954.22;;;7.36;80.11
60427;BME280;46274;47.168;27.604;2023-05-09T03:24:20;100847.38;;;6.74;79.94
60427;BME280;46274;47.168;27.604;2023-05-09T03:30:22;100937.00;;;7.28;79.73
60427;BME280;46274;47.168;27.604;2023-05-09T03:36:25;100992.22;;;7.54;79.89
60427;BME280;46274;47.168;27.604;2023-05-09T03:42:30;100988.66;;;7.54;79.76
60427;BME280;46274;47.168;27.604;2023-05-09T03:48:33;100993.78;;;7.57;80.04
60427;BME280;46274;47.168;27.604;2023-05-09T03:54:35;100994.94;;;7.64;79.76
60427;BME280;46274;47.168;27.604;2023-05-09T04:00:39;100999.88;;;7.59;79.98
60427;BME280;46274;47.168;27.604;2023-05-09T04:06:44;101004.75;;;7.65;80.13
60427;BME280;46274;47.168;27.604;2023-05-09T04:12:48;100958.03;;;7.34;80.20
60427;BME280;46274;47.168;27.604;2023-05-09T04:18:51;100964.19;;;7.46;80.00
60427;BME280;46274;47.168;27.604;2023-05-09T04:24:53;100846.09;;;6.78;79.89
60427;BME280;46274;47.168;27.604;2023-05-09T04:30:57;101014.91;;;7.82;79.97
60427;BME280;46274;47.168;27.604;2023-05-09T04:37:03;101015.94;;;7.91;79.73
60427;BME280;46274;47.168;27.604;2023-05-09T04:43:05;101016.50;;;7.95;79.81
60427;BME280;46274;47.168;27.604;2023-05-09T04:49:08;101015.81;;;8.02;79.62
60427;BME280;46274;47.168;27.604;2023-05-09T04:55:10;100981.41;;;7.85;78.94
60427;BME280;46274;47.168;27.604;2023-05-09T05:01:18;100980.44;;;7.96;78.77
60427;BME280;46274;47.168;27.604;2023-05-09T05:07:20;100997.72;;;8.24;78.76
60427;BME280;46274;47.168;27.604;2023-05-09T05:13:25;101022.81;;;8.45;78.19
60427;BME280;46274;47.168;27.604;2023-05-09T05:19:37;100866.50;;;7.73;76.95
60427;BME280;46274;47.168;27.604;2023-05-09T05:25:49;101018.00;;;8.68;76.10
60427;BME280;46274;47.168;27.604;2023-05-09T05:32:11;101025.81;;;9.01;76.18
60427;BME280;46274;47.168;27.604;2023-05-09T05:38:19;101024.09;;;9.29;76.19
60427;BME280;46274;47.168;27.604;2023-05-09T05:44:26;101033.03;;;9.39;74.55
60427;BME280;46274;47.168;27.604;2023-05-09T05:50:42;100735.72;;;7.86;73.83
60427;BME280;46274;47.168;27.604;2023-05-09T05:56:50;100937.81;;;9.35;71.80
60427;BME280;46274;47.168;27.604;2023-05-09T06:02:58;100947.69;;;9.17;67.32
60427;BME280;46274;47.168;27.604;2023-05-09T06:09:08;101023.97;;;10.15;67.00
60427;BME280;46274;47.168;27.604;2023-05-09T06:22:22;101007.28;;;10.83;66.37
60427;BME280;46274;47.168;27.604;2023-05-09T06:28:32;101019.13;;;11.00;68.21
60427;BME280;46274;47.168;27.604;2023-05-09T06:34:38;101029.09;;;10.81;61.55
60427;BME280;46274;47.168;27.604;2023-05-09T06:40:47;100895.50;;;9.99;63.72
60427;BME280;46274;47.168;27.604;2023-05-09T06:46:59;101027.25;;;10.64;62.79
60427;BME280;46274;47.168;27.604;2023-05-09T06:53:18;101030.00;;;11.44;59.01
60427;BME280;46274;47.168;27.604;2023-05-09T06:59:40;101025.81;;;11.31;60.16
60427;BME280;46274;47.168;27.604;2023-05-09T07:05:58;100971.53;;;11.05;59.37
60427;BME280;46274;47.168;27.604;2023-05-09T07:12:14;100999.63;;;12.59;64.09
60427;BME280;46274;47.168;27.604;2023-05-09T07:18:24;101013.34;;;11.91;59.23
60427;BME280;46274;47.168;27.604;2023-05-09T07:24:40;100972.28;;;11.94;57.57
60427;BME280;46274;47.168;27.604;2023-05-09T07:31:00;101008.53;;;12.94;60.14
60427;BME280;46274;47.168;27.604;2023-05-09T07:37:26;101012.78;;;12.21;58.51
60427;BME280;46274;47.168;27.604;2023-05-09T07:43:34;100937.94;;;12.35;58.19
60427;BME280;46274;47.168;27.604;2023-05-09T07:49:39;101000.72;;;12.99;56.67
60427;BME280;46274;47.168;27.604;2023-05-09T07:55:50;101001.19;;;13.68;56.87
60427;BME280;46274;47.168;27.604;2023-05-09T08:02:00;101012.94;;;13.69;54.35
60427;BME280;46274;47.168;27.604;2023-05-09T08:08:03;100947.31;;;13.23;57.26
60427;BME280;46274;47.168;27.604;2023-05-09T08:14:05;101008.50;;;13.76;54.24
60427;BME280;46274;47.168;27.604;2023-05-09T08:20:08;100905.13;;;11.78;53.87
60427;BME280;46274;47.168;27.604;2023-05-09T08:26:15;101001.22;;;13.03;50.65
60427;BME280;46274;47.168;27.604;2023-05-09T08:32:20;100997.84;;;13.98;54.91
60427;BME280;46274;47.168;27.604;2023-05-09T08:38:25;100990.31;;;13.68;52.05
60427;BME280;46274;47.168;27.604;2023-05-09T08:44:29;100966.50;;;13.54;48.88
60427;BME280;46274;47.168;27.604;2023-05-09T08:50:42;100850.25;;;13.55;56.46
60427;BME280;46274;47.168;27.604;2023-05-09T08:56:55;100952.69;;;14.89;51.39
60427;BME280;46274;47.168;27.604;2023-05-09T09:03:01;100923.56;;;14.04;50.51
60427;BME280;46274;47.168;27.604;2023-05-09T09:09:13;100968.91;;;15.43;53.17
60427;BME280;46274;47.168;27.604;2023-05-09T09:15:17;100958.44;;;14.71;48.25
60427;BME280;46274;47.168;27.604;2023-05-09T09:21:20;100873.13;;;13.21;45.78
60427;BME280;46274;47.168;27.604;2023-05-09T09:27:24;100990.50;;;12.69;47.02
60427;BME280;46274;47.168;27.604;2023-05-09T09:33:28;100848.00;;;13.10;43.15
60427;BME280;46274;47.168;27.604;2023-05-09T09:39:32;100985.72;;;13.03;48.31
60427;BME280;46274;47.168;27.604;2023-05-09T09:45:47;100963.06;;;14.08;48.30
60427;BME280;46274;47.168;27.604;2023-05-09T09:51:56;100839.59;;;12.48;44.96
60427;BME280;46274;47.168;27.604;2023-05-09T09:57:59;100993.22;;;14.06;44.81
60427;BME280;46274;47.168;27.604;2023-05-09T10:04:04;100915.31;;;13.41;44.40
60427;BME280;46274;47.168;27.604;2023-05-09T10:10:10;100976.50;;;13.70;43.23
60427;BME280;46274;47.168;27.604;2023-05-09T10:16:16;100979.34;;;13.85;44.77
60427;BME280;46274;47.168;27.604;2023-05-09T10:22:30;100956.16;;;14.28;43.93
60427;BME280;46274;47.168;27.604;2023-05-09T10:28:37;100937.06;;;14.28;45.52
60427;BME280;46274;47.168;27.604;2023-05-09T10:34:47;100970.56;;;13.66;42.83
60427;BME280;46274;47.168;27.604;2023-05-09T10:40:55;100955.91;;;14.07;44.60
60427;BME280;46274;47.168;27.604;2023-05-09T10:46:58;100852.50;;;12.71;45.05
60427;BME280;46274;47.168;27.604;2023-05-09T10:53:10;100883.53;;;13.01;47.01
60427;BME280;46274;47.168;27.604;2023-05-09T10:59:39;100913.06;;;13.92;45.33
60427;BME280;46274;47.168;27.604;2023-05-09T11:05:44;100963.09;;;13.52;42.46
60427;BME280;46274;47.168;27.604;2023-05-09T11:18:13;100947.94;;;14.05;43.04
60427;BME280;46274;47.168;27.604;2023-05-09T11:24:22;100833.34;;;13.28;41.99
60427;BME280;46274;47.168;27.604;2023-05-09T11:30:39;100944.41;;;14.28;44.28
60427;BME280;46274;47.168;27.604;2023-05-09T11:36:47;100933.56;;;14.11;40.50
60427;BME280;46274;47.168;27.604;2023-05-09T11:42:51;100885.81;;;14.47;41.61
60427;BME280;46274;47.168;27.604;2023-05-09T11:49:18;100831.47;;;13.68;41.28
60427;BME280;46274;47.168;27.604;2023-05-09T11:55:25;100927.41;;;14.95;41.61
60427;BME280;46274;47.168;27.604;2023-05-09T12:01:36;100920.78;;;14.20;42.34
60427;BME280;46274;47.168;27.604;2023-05-09T12:07:40;100901.41;;;14.38;42.79
60427;BME280;46274;47.168;27.604;2023-05-09T12:14:05;100920.25;;;14.94;40.66
60427;BME280;46274;47.168;27.604;2023-05-09T12:20:10;100694.84;;;13.02;41.17
60427;BME280;46274;47.168;27.604;2023-05-09T12:26:32;100903.25;;;14.37;42.04
60427;BME280;46274;47.168;27.604;2023-05-09T12:33:17;100897.56;;;14.24;43.40
60427;BME280;46274;47.168;27.604;2023-05-09T12:39:28;100894.06;;;14.15;44.51
60427;BME280;46274;47.168;27.604;2023-05-09T12:45:38;100736.94;;;13.53;39.93
60427;BME280;46274;47.168;27.604;2023-05-09T12:52:15;100884.25;;;14.75;42.32
60427;BME280;46274;47.168;27.604;2023-05-09T13:11:58;100792.38;;;13.61;42.40
60427;BME280;46274;47.168;27.604;2023-05-09T13:18:20;100667.28;;;13.05;43.22
60427;BME280;46274;47.168;27.604;2023-05-09T13:24:32;100865.72;;;13.62;42.34
60427;BME280;46274;47.168;27.604;2023-05-09T13:30:47;100856.94;;;13.83;41.56
60427;BME280;46274;47.168;27.604;2023-05-09T13:37:00;100854.66;;;13.64;46.11
60427;BME280;46274;47.168;27.604;2023-05-09T13:43:05;100622.28;;;12.94;43.75
60427;BME280;46274;47.168;27.604;2023-05-09T13:49:30;100763.91;;;13.40;42.11
60427;BME280;46274;47.168;27.604;2023-05-09T13:55:40;100770.94;;;13.18;44.67
60427;BME280;46274;47.168;27.604;2023-05-09T14:01:45;100846.91;;;13.44;45.67
60427;BME280;46274;47.168;27.604;2023-05-09T14:07:50;100815.44;;;13.42;44.68
60427;BME280;46274;47.168;27.604;2023-05-09T14:13:53;100818.34;;;13.24;43.90
60427;BME280;46274;47.168;27.604;2023-05-09T14:26:56;100851.09;;;13.55;44.11
60427;BME280;46274;47.168;27.604;2023-05-09T14:33:06;100845.06;;;13.99;43.43
60427;BME280;46274;47.168;27.604;2023-05-09T14:46:23;100759.63;;;12.90;42.19
60427;BME280;46274;47.168;27.604;2023-05-09T14:52:41;100789.53;;;13.54;42.88
60427;BME280;46274;47.168;27.604;2023-05-09T14:58:55;100838.16;;;13.88;43.41
60427;BME280;46274;47.168;27.604;2023-05-09T15:05:04;100756.25;;;12.96;43.43
60427;BME280;46274;47.168;27.604;2023-05-09T15:11:26;100821.81;;;13.88;43.22
60427;BME280;46274;47.168;27.604;2023-05-09T15:18:05;100837.88;;;14.06;42.48
60427;BME280;46274;47.168;27.604;2023-05-09T15:31:24;100710.44;;;12.69;42.49
60427;BME280;46274;47.168;27.604;2023-05-09T15:37:46;100586.66;;;12.50;43.77
60427;BME280;46274;47.168;27.604;2023-05-09T15:43:55;100737.63;;;12.69;42.85
60427;BME280;46274;47.168;27.604;2023-05-09T15:50:00;100735.47;;;12.95;43.93
60427;BME280;46274;47.168;27.604;2023-05-09T15:56:16;100730.00;;;13.12;43.47
60427;BME280;46274;47.168;27.604;2023-05-09T16:02:47;100801.09;;;13.00;42.67
60427;BME280;46274;47.168;27.604;2023-05-09T16:09:05;100807.53;;;13.07;44.83
60427;BME280;46274;47.168;27.604;2023-05-09T16:15:11;100599.72;;;11.41;47.98
60427;BME280;46274;47.168;27.604;2023-05-09T16:21:44;100801.53;;;12.56;50.85
60427;BME280;46274;47.168;27.604;2023-05-09T16:27:47;100757.53;;;12.36;49.31
60427;BME280;46274;47.168;27.604;2023-05-09T16:33:52;100810.69;;;12.39;51.53
60427;BME280;46274;47.168;27.604;2023-05-09T16:40:28;100783.88;;;12.28;50.00
60427;BME280;46274;47.168;27.604;2023-05-09T16:46:50;100704.28;;;12.11;49.99
60427;BME280;46274;47.168;27.604;2023-05-09T16:53:02;100660.66;;;11.96;50.98
60427;BME280;46274;47.168;27.604;2023-05-09T16:59:14;100751.63;;;12.25;51.18
60427;BME280;46274;47.168;27.604;2023-05-09T17:05:18;100796.97;;;12.16;52.46
60427;BME280;46274;47.168;27.604;2023-05-09T17:11:27;100788.38;;;12.93;51.06
60427;BME280;46274;47.168;27.604;2023-05-09T17:17:35;100774.72;;;13.01;50.92
60427;BME280;46274;47.168;27.604;2023-05-09T17:23:38;100782.38;;;13.05;51.32
60427;BME280;46274;47.168;27.604;2023-05-09T17:29:41;100766.78;;;12.83;52.35
60427;BME280;46274;47.168;27.604;2023-05-09T17:35:43;100789.78;;;12.80;53.71
60427;BME280;46274;47.168;27.604;2023-05-09T17:41:46;100784.50;;;12.79;54.45
60427;BME280;46274;47.168;27.604;2023-05-09T17:47:47;100782.16;;;12.59;54.99
60427;BME280;46274;47.168;27.604;2023-05-09T17:53:51;100772.19;;;12.11;55.65
60427;BME280;46274;47.168;27.604;2023-05-09T18:00:03;100795.25;;;12.48;55.06
60427;BME280;46274;47.168;27.604;2023-05-09T18:06:10;100635.34;;;11.71;54.75
60427;BME280;46274;47.168;27.604;2023-05-09T18:12:15;100801.69;;;12.71;55.81
60427;BME280;46274;47.168;27.604;2023-05-09T18:18:24;100805.97;;;12.25;57.15
60427;BME280;46274;47.168;27.604;2023-05-09T18:24:33;100813.41;;;12.39;56.98
60427;BME280;46274;47.168;27.604;2023-05-09T18:30:36;100805.63;;;12.03;60.33
60427;BME280;46274;47.168;27.604;2023-05-09T18:36:41;100728.13;;;11.58;60.23
60427;BME280;46274;47.168;27.604;2023-05-09T18:42:52;100810.03;;;12.12;59.07
60427;BME280;46274;47.168;27.604;2023-05-09T18:48:55;100810.72;;;12.06;57.54
60427;BME280;46274;47.168;27.604;2023-05-09T18:54:58;100805.28;;;11.98;57.18
60427;BME280;46274;47.168;27.604;2023-05-09T19:01:15;100804.59;;;12.04;57.66
60427;BME280;46274;47.168;27.604;2023-05-09T19:07:19;100758.53;;;11.78;57.91
60427;BME280;46274;47.168;27.604;2023-05-09T19:13:24;100792.91;;;11.61;60.19
60427;BME280;46274;47.168;27.604;2023-05-09T19:19:27;100726.72;;;9.55;64.00
60427;BME280;46274;47.168;27.604;2023-05-09T19:25:29;100781.16;;;9.88;65.06
60427;BME280;46274;47.168;27.604;2023-05-09T19:31:40;100789.97;;;10.43;65.16
60427;BME280;46274;47.168;27.604;2023-05-09T19:37:47;100781.38;;;9.58;67.26
60427;BME280;46274;47.168;27.604;2023-05-09T19:43:49;100798.09;;;10.96;62.37
60427;BME280;46274;47.168;27.604;2023-05-09T19:50:00;100766.47;;;11.12;60.91
60427;BME280;46274;47.168;27.604;2023-05-09T19:56:06;100803.91;;;9.95;66.92
60427;BME280;46274;47.168;27.604;2023-05-09T20:02:12;100759.06;;;10.54;63.43
60427;BME280;46274;47.168;27.604;2023-05-09T20:08:15;100671.31;;;10.55;61.68
60427;BME280;46274;47.168;27.604;2023-05-09T20:14:17;100597.41;;;10.11;62.39
60427;BME280;46274;47.168;27.604;2023-05-09T20:20:19;100775.03;;;11.26;62.36
60427;BME280;46274;47.168;27.604;2023-05-09T20:26:24;100775.63;;;11.11;63.21
60427;BME280;46274;47.168;27.604;2023-05-09T20:32:29;100725.84;;;10.86;62.88
60427;BME280;46274;47.168;27.604;2023-05-09T20:38:32;100777.00;;;11.16;62.80
60427;BME280;46274;47.168;27.604;2023-05-09T20:44:43;100733.31;;;9.07;70.51
60427;BME280;46274;47.168;27.604;2023-05-09T20:50:49;100772.22;;;8.86;73.83
60427;BME280;46274;47.168;27.604;2023-05-09T20:56:54;100723.31;;;9.35;70.03
60427;BME280;46274;47.168;27.604;2023-05-09T21:02:58;100741.91;;;10.45;65.75
60427;BME280;46274;47.168;27.604;2023-05-09T21:09:14;100636.38;;;9.30;68.71
60427;BME280;46274;47.168;27.604;2023-05-09T21:15:29;100749.53;;;10.50;65.29
60427;BME280;46274;47.168;27.604;2023-05-09T21:21:34;100503.28;;;9.00;66.59
60427;BME280;46274;47.168;27.604;2023-05-09T21:27:42;100763.28;;;9.13;73.49
60427;BME280;46274;47.168;27.604;2023-05-09T21:33:44;100755.59;;;10.44;66.16
60427;BME280;46274;47.168;27.604;2023-05-09T21:39:48;100687.78;;;10.10;67.61
60427;BME280;46274;47.168;27.604;2023-05-09T21:45:53;100707.50;;;10.20;67.32
60427;BME280;46274;47.168;27.604;2023-05-09T21:51:56;100740.63;;;9.96;69.20
60427;BME280;46274;47.168;27.604;2023-05-09T21:57:58;100749.13;;;9.83;70.01
60427;BME280;46274;47.168;27.604;2023-05-09T22:04:08;100670.00;;;9.27;70.66
60427;BME280;46274;47.168;27.604;2023-05-09T22:10:14;100740.28;;;10.17;68.44
60427;BME280;46274;47.168;27.604;2023-05-09T22:16:16;100736.97;;;10.23;67.92
60427;BME280;46274;47.168;27.604;2023-05-09T22:22:18;100650.75;;;9.48;69.14
60427;BME280;46274;47.168;27.604;2023-05-09T22:28:20;100732.47;;;10.14;68.03
60427;BME280;46274;47.168;27.604;2023-05-09T22:34:23;100688.16;;;9.89;67.68
60427;BME280;46274;47.168;27.604;2023-05-09T22:40:26;100719.44;;;9.91;67.84
60427;BME280;46274;47.168;27.604;2023-05-09T22:46:28;100728.56;;;10.08;67.44
60427;BME280;46274;47.168;27.604;2023-05-09T22:52:33;100724.72;;;9.75;69.78
60427;BME280;46274;47.168;27.604;2023-05-09T22:58:36;100727.78;;;8.71;74.53
60427;BME280;46274;47.168;27.604;2023-05-09T23:04:38;100691.41;;;8.65;74.24
60427;BME280;46274;47.168;27.604;2023-05-09T23:10:41;100580.63;;;8.38;72.98
60427;BME280;46274;47.168;27.604;2023-05-09T23:16:46;100709.50;;;8.83;74.88
60427;BME280;46274;47.168;27.604;2023-05-09T23:23:06;100683.25;;;9.21;71.59
60427;BME280;46274;47.168;27.604;2023-05-09T23:29:11;100697.25;;;9.70;69.48
60427;BME280;46274;47.168;27.604;2023-05-09T23:35:19;100701.75;;;8.98;73.29
60427;BME280;46274;47.168;27.604;2023-05-09T23:41:25;100650.91;;;9.29;70.49
60427;BME280;46274;47.168;27.604;2023-05-09T23:47:31;100668.66;;;9.49;69.33
60427;BME280;46274;47.168;27.604;2023-05-09T23:53:34;100643.03;;;9.17;70.42
60427;BME280;46274;47.168;27.604;2023-05-09T23:59:45;100489.47;;;8.22;70.48
